Time;durP1;ratioP1;P1;durP2;ratioP2;P2;SDS_P1;SDS_P2;PMS_P1;PMS_P2;Temp;Humidity;BMP_temperature;BMP_pressure;BME280_temperature;BME280_humidity;BME280_pressure;Samples;Min_cycle;Max_cycle;Signal;HPM_P1;HPM_P2
2021/09/21 00:00:20;;;;;;;;;;;;;;;;;;2064665;28;5218;-74
2021/09/21 00:01:21;;;;;;;;;;;;;;;;;;2065571;28;5229;-74
2021/09/21 00:02:21;;;;;;;;;;;;;;;;;;2065098;28;5385;-74
2021/09/21 00:03:22;;;;;;;;;;;;;;;;;;2066069;28;4068;-74
2021/09/21 00:04:27;;;;;;;;;;;;;;;;;;2064732;28;4804;-75
2021/09/21 00:05:28;;;;;;;;;;;;;;;;;;2065964;28;4315;-74
2021/09/21 00:06:28;;;;;;;;;;;;;;;;;;2065312;28;4576;-74
2021/09/21 00:07:29;;;;;;;;;;;;;;;;;;2065141;28;4163;-74
2021/09/21 00:08:29;;;;;;;;;;;;;;;;;;2065114;28;2222;-74
2021/09/21 00:09:30;;;;;;;;;;;;;;;;;;2064819;28;1192;-74
2021/09/21 00:10:30;;;;;;;;;;;;;;;;;;2065076;28;4303;-75
2021/09/21 00:11:31;;;;;;;;;;;;;;;;;;2065345;28;4078;-75
2021/09/21 00:12:31;;;;;;;;;;;;;;;;;;2064922;28;1034;-73
2021/09/21 00:13:34;;;;;;;;;;;;;;;;;;2066054;28;1153;-74
2021/09/21 00:14:34;;;;;;;;;;;;;;;;;;2065824;28;1073;-74
2021/09/21 00:15:35;;;;;;;;;;;;;;;;;;2065613;28;3874;-74
2021/09/21 00:16:35;;;;;;;;;;;;;;;;;;2065445;28;4499;-74
2021/09/21 00:17:36;;;;;;;;;;;;;;;;;;2064318;28;4502;-74
2021/09/21 00:18:37;;;;;;;;;;;;;;;;;;2064917;28;4043;-74
2021/09/21 00:19:38;;;;;;;;;;;;;;;;;;2064139;28;4557;-74
2021/09/21 00:20:38;;;;;;;;;;;;;;;;;;2065489;28;1385;-74
2021/09/21 00:21:39;;;;;;;;;;;;;;;;;;2065819;28;1962;-74
2021/09/21 00:22:39;;;;;;;;;;;;;;;;;;2067089;28;1129;-74
2021/09/21 00:23:40;;;;;;;;;;;;;;;;;;2065818;28;4533;-74
2021/09/21 00:24:40;;;;;;;;;;;;;;;;;;2065024;28;4667;-74
2021/09/21 00:25:41;;;;;;;;;;;;;;;;;;2066119;28;1208;-74
2021/09/21 00:26:41;;;;;;;;;;;;;;;;;;2064701;28;4917;-74
2021/09/21 00:27:42;;;;;;;;;;;;;;;;;;2065676;28;2672;-74
2021/09/21 00:28:43;;;;;;;;;;;;;;;;;;2065329;28;4563;-74
2021/09/21 00:29:44;;;;;;;;;;;;;;;;;;2064924;28;4846;-74
2021/09/21 00:30:47;;;;;;;;;;;;;;;;;;2065657;28;1350;-74
2021/09/21 00:31:56;;;;;;;;;;;;;;;;;;2063899;28;4094;-74
2021/09/21 00:33:02;;;;;;;;;;;;;;;;;;2064234;28;5034;-74
2021/09/21 00:34:08;;;;;;;;;;;;;;;;;;2065063;28;2575;-74
2021/09/21 00:35:08;;;;;;;;;;;;;;;;;;2063400;28;4404;-74
2021/09/21 00:36:09;;;;;;;;;;;;;;;;;;2063724;28;4063;-74
2021/09/21 00:37:09;;;;;;;;;;;;;;;;;;2063597;28;4336;-74
2021/09/21 00:38:10;;;;;;;;;;;;;;;;;;2065472;28;4296;-74
2021/09/21 00:39:10;;;;;;;;;;;;;;;;;;2065706;28;4003;-74
2021/09/21 00:40:11;;;;;;;;;;;;;;;;;;2066821;28;1179;-74
2021/09/21 00:41:11;;;;;;;;;;;;;;;;;;2066576;28;3708;-74
2021/09/21 00:42:12;;;;;;;;;;;;;;;;;;2067161;28;4468;-74
2021/09/21 00:43:13;;;;;;;;;;;;;;;;;;2068434;28;1195;-74
2021/09/21 00:44:14;;;;;;;;;;;;;;;;;;2065970;28;4464;-74
2021/09/21 00:45:14;;;;;;;;;;;;;;;;;;2067262;28;4340;-74
2021/09/21 00:46:15;;;;;;;;;;;;;;;;;;2067106;28;4992;-74
2021/09/21 00:47:15;;;;;;;;;;;;;;;;;;2067181;28;1098;-74
2021/09/21 00:48:16;;;;;;;;;;;;;;;;;;2066512;28;4641;-74
2021/09/21 00:49:16;;;;;;;;;;;;;;;;;;2066587;28;2581;-74
2021/09/21 00:50:17;;;;;;;;;;;;;;;;;;2065069;28;5188;-74
2021/09/21 00:51:19;;;;;;;;;;;;;;;;;;2065919;28;4098;-74
2021/09/21 00:52:20;;;;;;;;;;;;;;;;;;2065627;28;1166;-74
2021/09/21 00:53:20;;;;;;;;;;;;;;;;;;2065858;28;4092;-74
2021/09/21 00:54:21;;;;;;;;;;;;;;;;;;2065713;28;3991;-74
2021/09/21 00:55:21;;;;;;;;;;;;;;;;;;2065691;28;4396;-74
2021/09/21 00:56:22;;;;;;;;;;;;;;;;;;2066136;28;4018;-74
2021/09/21 00:57:22;;;;;;;;;;;;;;;;;;2066206;28;1370;-74
2021/09/21 00:58:23;;;;;;;;;;;;;;;;;;2065408;28;4971;-74
2021/09/21 00:59:24;;;;;;;;;;;;;;;;;;2067237;28;3890;-74
2021/09/21 01:00:25;;;;;;;;;;;;;;;;;;2066422;28;4069;-74
2021/09/21 01:01:25;;;;;;;;;;;;;;;;;;2067356;28;1993;-74
2021/09/21 01:02:26;;;;;;;;;;;;;;;;;;2067258;28;1077;-74
2021/09/21 01:03:26;;;;;;;;;;;;;;;;;;2067139;28;2224;-74
2021/09/21 01:04:27;;;;;;;;;;;;;;;;;;2066531;28;4259;-74
2021/09/21 01:05:27;;;;;;;;;;;;;;;;;;2066434;28;3894;-74
2021/09/21 01:06:28;;;;;;;;;;;;;;;;;;2064798;28;5032;-74
2021/09/21 01:07:29;;;;;;;;;;;;;;;;;;2066393;28;4540;-75
2021/09/21 01:08:30;;;;;;;;;;;;;;;;;;2065168;28;4374;-74
2021/09/21 01:09:30;;;;;;;;;;;;;;;;;;2066816;28;1526;-74
2021/09/21 01:10:31;;;;;;;;;;;;;;;;;;2067014;28;2357;-74
2021/09/21 01:11:32;;;;;;;;;;;;;;;;;;2065967;28;4408;-74
2021/09/21 01:12:33;;;;;;;;;;;;;;;;;;2065349;28;5673;-74
2021/09/21 01:13:33;;;;;;;;;;;;;;;;;;2065670;28;3904;-74
2021/09/21 01:14:34;;;;;;;;;;;;;;;;;;2065746;28;4004;-74
2021/09/21 01:15:35;;;;;;;;;;;;;;;;;;2065967;28;4170;-74
2021/09/21 01:16:35;;;;;;;;;;;;;;;;;;2065222;28;4345;-74
2021/09/21 01:17:36;;;;;;;;;;;;;;;;;;2066189;28;4565;-74
2021/09/21 01:18:36;;;;;;;;;;;;;;;;;;2064824;28;4304;-74
2021/09/21 01:19:38;;;;;;;;;;;;;;;;;;2064508;28;4679;-74
2021/09/21 01:20:38;;;;;;;;;;;;;;;;;;2065271;28;4254;-74
2021/09/21 01:21:39;;;;;;;;;;;;;;;;;;2064999;28;4314;-74
2021/09/21 01:22:39;;;;;;;;;;;;;;;;;;2067500;28;4072;-74
2021/09/21 01:23:42;;;;;;;;;;;;;;;;;;2066722;28;4096;-74
2021/09/21 01:24:42;;;;;;;;;;;;;;;;;;2066537;28;4296;-74
2021/09/21 01:25:45;;;;;;;;;;;;;;;;;;2067633;28;1421;-74
2021/09/21 01:26:45;;;;;;;;;;;;;;;;;;2064759;28;4639;-74
2021/09/21 01:27:46;;;;;;;;;;;;;;;;;;2067072;28;4481;-74
2021/09/21 01:28:46;;;;;;;;;;;;;;;;;;2066896;28;4290;-74
2021/09/21 01:29:47;;;;;;;;;;;;;;;;;;2065735;28;4865;-74
2021/09/21 01:30:47;;;;;;;;;;;;;;;;;;2065843;28;4718;-74
2021/09/21 01:31:49;;;;;;;;;;;;;;;;;;2065902;28;4171;-74
2021/09/21 01:32:51;;;;;;;;;;;;;;;;;;2065788;28;4994;-74
2021/09/21 01:33:52;;;;;;;;;;;;;;;;;;2066646;28;4779;-74
2021/09/21 01:34:54;;;;;;;;;;;;;;;;;;2067780;28;1230;-74
2021/09/21 01:35:55;;;;;;;;;;;;;;;;;;2067235;28;2276;-74
2021/09/21 01:36:55;;;;;;;;;;;;;;;;;;2065922;28;4823;-74
2021/09/21 01:37:57;;;;;;;;;;;;;;;;;;2066622;28;4578;-74
2021/09/21 01:38:57;;;;;;;;;;;;;;;;;;2065571;28;4644;-74
2021/09/21 01:39:58;;;;;;;;;;;;;;;;;;2067832;28;4168;-74
2021/09/21 01:40:58;;;;;;;;;;;;;;;;;;2068549;28;1303;-74
2021/09/21 01:41:59;;;;;;;;;;;;;;;;;;2066765;28;2162;-74
2021/09/21 01:42:59;;;;;;;;;;;;;;;;;;2067940;28;1263;-74
2021/09/21 01:44:00;;;;;;;;;;;;;;;;;;2066421;28;2452;-74
2021/09/21 01:45:00;;;;;;;;;;;;;;;;;;2067045;28;1180;-74
2021/09/21 01:46:01;;;;;;;;;;;;;;;;;;2067023;28;2640;-74
2021/09/21 01:47:04;;;;;;;;;;;;;;;;;;2066612;28;4684;-74
2021/09/21 01:48:05;;;;;;;;;;;;;;;;;;2067501;28;2687;-74
2021/09/21 01:49:05;;;;;;;;;;;;;;;;;;2066701;28;4472;-74
2021/09/21 01:50:22;;;;;;;;;;;;;;;;;;2067383;28;4602;-74
2021/09/21 01:51:28;;;;;;;;;;;;;;;;;;2066999;28;1259;-74
2021/09/21 01:52:34;;;;;;;;;;;;;;;;;;2067345;28;1987;-74
2021/09/21 01:53:42;;;;;;;;;;;;;;;;;;2067763;28;2307;-74
2021/09/21 01:55:03;;;;;;;;;;;;;;;;;;2067297;28;2042;-74
2021/09/21 01:58:47;;;;;;;;;;;;;;;;;;2065321;28;4939;-74
2021/09/21 01:59:47;;;;;;;;;;;;;;;;;;2065959;28;4365;-74
2021/09/21 02:00:49;;;;;;;;;;;;;;;;;;2066419;28;4690;-74
2021/09/21 02:01:49;;;;;;;;;;;;;;;;;;2067484;28;1906;-74
2021/09/21 02:05:29;;;;;;;;;;;;;;;;;;2060733;28;4591;-74
2021/09/21 02:06:34;;;;;;;;;;;;;;;;;;2066731;28;4377;-74
2021/09/21 02:07:35;;;;;;;;;;;;;;;;;;2066926;28;4127;-74
2021/09/21 02:08:35;;;;;;;;;;;;;;;;;;2065661;28;4758;-74
2021/09/21 02:09:36;;;;;;;;;;;;;;;;;;2065162;28;4472;-74
2021/09/21 02:10:36;;;;;;;;;;;;;;;;;;2065619;28;4187;-74
2021/09/21 02:11:37;;;;;;;;;;;;;;;;;;2066813;28;1385;-74
2021/09/21 02:12:37;;;;;;;;;;;;;;;;;;2066786;28;4334;-74
2021/09/21 02:13:38;;;;;;;;;;;;;;;;;;2065594;28;4146;-74
2021/09/21 02:14:39;;;;;;;;;;;;;;;;;;2066153;28;1302;-74
2021/09/21 02:15:40;;;;;;;;;;;;;;;;;;2064360;28;2014;-74
2021/09/21 02:16:40;;;;;;;;;;;;;;;;;;2064807;28;3156;-74
2021/09/21 02:17:41;;;;;;;;;;;;;;;;;;2065033;28;4951;-74
2021/09/21 02:18:41;;;;;;;;;;;;;;;;;;2065598;28;4412;-74
2021/09/21 02:19:42;;;;;;;;;;;;;;;;;;2065888;28;4303;-74
2021/09/21 02:20:42;;;;;;;;;;;;;;;;;;2065666;28;2610;-74
2021/09/21 02:21:44;;;;;;;;;;;;;;;;;;2066456;28;1989;-74
2021/09/21 02:22:44;;;;;;;;;;;;;;;;;;2065744;28;4074;-74
2021/09/21 02:23:45;;;;;;;;;;;;;;;;;;2066543;28;4514;-74
2021/09/21 02:24:45;;;;;;;;;;;;;;;;;;2066296;28;1474;-74
2021/09/21 02:25:46;;;;;;;;;;;;;;;;;;2064834;28;2733;-74
2021/09/21 02:26:47;;;;;;;;;;;;;;;;;;2065835;28;4418;-74
2021/09/21 02:27:48;;;;;;;;;;;;;;;;;;2067008;28;4411;-74
2021/09/21 02:28:48;;;;;;;;;;;;;;;;;;2065108;28;4151;-74
2021/09/21 02:29:49;;;;;;;;;;;;;;;;;;2066370;28;3904;-74
2021/09/21 02:30:49;;;;;;;;;;;;;;;;;;2066929;28;1292;-74
2021/09/21 02:31:50;;;;;;;;;;;;;;;;;;2066923;28;1140;-74
2021/09/21 02:32:50;;;;;;;;;;;;;;;;;;2065787;28;4259;-74
2021/09/21 02:33:52;;;;;;;;;;;;;;;;;;2067446;28;1015;-74
2021/09/21 02:34:53;;;;;;;;;;;;;;;;;;2066671;28;4121;-74
2021/09/21 02:35:54;;;;;;;;;;;;;;;;;;2065662;28;4515;-74
2021/09/21 02:36:54;;;;;;;;;;;;;;;;;;2066863;28;2452;-74
2021/09/21 02:37:55;;;;;;;;;;;;;;;;;;2065241;28;4622;-74
2021/09/21 02:38:55;;;;;;;;;;;;;;;;;;2064817;28;4488;-74
2021/09/21 02:39:56;;;;;;;;;;;;;;;;;;2066678;28;1825;-74
2021/09/21 02:40:56;;;;;;;;;;;;;;;;;;2065739;28;4290;-74
2021/09/21 02:41:57;;;;;;;;;;;;;;;;;;2066777;28;1938;-74
2021/09/21 02:42:57;;;;;;;;;;;;;;;;;;2065393;28;4141;-74
2021/09/21 02:43:59;;;;;;;;;;;;;;;;;;2066687;28;1127;-74
2021/09/21 02:44:59;;;;;;;;;;;;;;;;;;2067733;28;1137;-74
2021/09/21 02:46:01;;;;;;;;;;;;;;;;;;2065636;28;4128;-74
2021/09/21 02:47:01;;;;;;;;;;;;;;;;;;2066689;28;1160;-74
2021/09/21 02:48:02;;;;;;;;;;;;;;;;;;2066487;28;1157;-74
2021/09/21 02:49:02;;;;;;;;;;;;;;;;;;2064945;28;4406;-74
2021/09/21 02:50:03;;;;;;;;;;;;;;;;;;2067260;28;1013;-74
2021/09/21 02:51:03;;;;;;;;;;;;;;;;;;2066338;28;4001;-74
2021/09/21 02:52:05;;;;;;;;;;;;;;;;;;2066015;28;1216;-74
2021/09/21 02:53:05;;;;;;;;;;;;;;;;;;2066242;28;1088;-74
2021/09/21 02:54:06;;;;;;;;;;;;;;;;;;2065969;28;4160;-74
2021/09/21 02:55:06;;;;;;;;;;;;;;;;;;2066283;28;4025;-74
2021/09/21 02:56:07;;;;;;;;;;;;;;;;;;2065829;28;4261;-75
2021/09/21 02:57:07;;;;;;;;;;;;;;;;;;2066270;28;4237;-74
2021/09/21 02:58:08;;;;;;;;;;;;;;;;;;2066382;28;1227;-74
2021/09/21 02:59:08;;;;;;;;;;;;;;;;;;2065823;28;4019;-74
2021/09/21 03:00:09;;;;;;;;;;;;;;;;;;2064368;28;4478;-74
2021/09/21 03:01:10;;;;;;;;;;;;;;;;;;2064552;28;1386;-74
2021/09/21 03:02:11;;;;;;;;;;;;;;;;;;2065838;28;4551;-74
2021/09/21 03:03:11;;;;;;;;;;;;;;;;;;2065473;28;1643;-74
2021/09/21 03:04:19;;;;;;;;;;;;;;;;;;2066899;28;1322;-74
2021/09/21 03:05:22;;;;;;;;;;;;;;;;;;2064204;28;4334;-74
2021/09/21 03:06:26;;;;;;;;;;;;;;;;;;2063594;28;4611;-74
2021/09/21 03:07:32;;;;;;;;;;;;;;;;;;2065294;28;4234;-74
2021/09/21 03:08:35;;;;;;;;;;;;;;;;;;2064906;28;4482;-74
2021/09/21 03:09:50;;;;;;;;;;;;;;;;;;2065623;28;2764;-74
2021/09/21 03:11:08;;;;;;;;;;;;;;;;;;2065478;28;4059;-74
2021/09/21 03:12:19;;;;;;;;;;;;;;;;;;2066630;28;1134;-74
2021/09/21 03:13:38;;;;;;;;;;;;;;;;;;2066089;28;3247;-74
2021/09/21 03:17:19;;;;;;;;;;;;;;;;;;2066011;28;4194;-74
2021/09/21 03:18:20;;;;;;;;;;;;;;;;;;2065767;28;1907;-74
2021/09/21 03:19:22;;;;;;;;;;;;;;;;;;2065810;28;4845;-74
2021/09/21 03:20:23;;;;;;;;;;;;;;;;;;2065458;28;4488;-74
2021/09/21 03:21:24;;;;;;;;;;;;;;;;;;2066166;28;4468;-74
2021/09/21 03:22:24;;;;;;;;;;;;;;;;;;2066518;28;2008;-74
2021/09/21 03:23:25;;;;;;;;;;;;;;;;;;2066439;28;1125;-74
2021/09/21 03:24:25;;;;;;;;;;;;;;;;;;2065553;28;1274;-74
2021/09/21 03:25:28;;;;;;;;;;;;;;;;;;2066753;28;1290;-74
2021/09/21 03:26:28;;;;;;;;;;;;;;;;;;2066579;28;1310;-74
2021/09/21 03:27:29;;;;;;;;;;;;;;;;;;2066073;28;4565;-74
2021/09/21 03:28:29;;;;;;;;;;;;;;;;;;2065981;28;5024;-74
2021/09/21 03:29:30;;;;;;;;;;;;;;;;;;2064931;28;1358;-74
2021/09/21 03:30:30;;;;;;;;;;;;;;;;;;2066085;28;1259;-74
2021/09/21 03:31:32;;;;;;;;;;;;;;;;;;2066342;28;1257;-74
2021/09/21 03:32:32;;;;;;;;;;;;;;;;;;2065427;28;1456;-74
2021/09/21 03:33:33;;;;;;;;;;;;;;;;;;2066657;28;1053;-74
2021/09/21 03:34:37;;;;;;;;;;;;;;;;;;2066187;28;1220;-74
2021/09/21 03:35:37;;;;;;;;;;;;;;;;;;2065754;28;1116;-74
2021/09/21 03:36:38;;;;;;;;;;;;;;;;;;2066588;28;1113;-74
2021/09/21 03:37:38;;;;;;;;;;;;;;;;;;2066110;28;1534;-74
2021/09/21 03:38:39;;;;;;;;;;;;;;;;;;2066604;28;4788;-74
2021/09/21 03:39:39;;;;;;;;;;;;;;;;;;2064793;28;2083;-74
2021/09/21 03:40:40;;;;;;;;;;;;;;;;;;2065668;28;1919;-74
2021/09/21 03:42:40;;;;;;;;;;;;;;;;;;2120404;27;4656;-74
2021/09/21 03:43:40;;;;;;;;;;;;;;;;;;2121588;27;4719;-73
2021/09/21 03:44:42;;;;;;;;;;;;;;;;;;2122114;27;4685;-73
2021/09/21 03:45:42;;;;;;;;;;;;;;;;;;2124935;27;4556;-74
2021/09/21 03:46:43;;;;;;;;;;;;;;;;;;2128138;27;1132;-73
2021/09/21 03:47:43;;;;;;;;;;;;;;;;;;2125053;27;4607;-74
2021/09/21 03:48:44;;;;;;;;;;;;;;;;;;2121574;27;4482;-73
2021/09/21 03:49:45;;;;;;;;;;;;;;;;;;2123220;27;1115;-73
2021/09/21 03:50:45;;;;;;;;;;;;;;;;;;2117397;27;4605;-73
2021/09/21 03:51:46;;;;;;;;;;;;;;;;;;2114960;27;1037;-73
2021/09/21 03:52:46;;;;;;;;;;;;;;;;;;2113549;27;4229;-74
2021/09/21 03:53:47;;;;;;;;;;;;;;;;;;2115161;27;1161;-74
2021/09/21 03:54:48;;;;;;;;;;;;;;;;;;2114069;27;4288;-74
2021/09/21 03:55:49;;;;;;;;;;;;;;;;;;2111673;27;4395;-73
2021/09/21 03:56:49;;;;;;;;;;;;;;;;;;2113997;27;4323;-74
2021/09/21 03:57:50;;;;;;;;;;;;;;;;;;2114651;27;1169;-73
2021/09/21 03:58:50;;;;;;;;;;;;;;;;;;2114333;27;4270;-74
2021/09/21 03:59:51;;;;;;;;;;;;;;;;;;2113855;27;3951;-73
2021/09/21 04:00:51;;;;;;;;;;;;;;;;;;2113788;27;4066;-73
2021/09/21 04:01:52;;;;;;;;;;;;;;;;;;2113182;27;1986;-73
2021/09/21 04:02:52;;;;;;;;;;;;;;;;;;2113337;27;1187;-73
2021/09/21 04:03:53;;;;;;;;;;;;;;;;;;2113909;27;1141;-74
2021/09/21 04:04:54;;;;;;;;;;;;;;;;;;2114450;27;4107;-73
2021/09/21 04:05:55;;;;;;;;;;;;;;;;;;2114109;27;4311;-73
2021/09/21 04:06:55;;;;;;;;;;;;;;;;;;2113703;27;1360;-74
2021/09/21 04:07:56;;;;;;;;;;;;;;;;;;2114126;27;1218;-74
2021/09/21 04:08:56;;;;;;;;;;;;;;;;;;2113375;27;4460;-74
2021/09/21 04:09:57;;;;;;;;;;;;;;;;;;2114175;27;1159;-74
2021/09/21 04:10:58;;;;;;;;;;;;;;;;;;2114083;27;1341;-73
2021/09/21 04:11:59;;;;;;;;;;;;;;;;;;2114616;27;1181;-74
2021/09/21 04:13:00;;;;;;;;;;;;;;;;;;2114771;27;1347;-73
2021/09/21 04:14:00;;;;;;;;;;;;;;;;;;2113672;27;4552;-74
2021/09/21 04:15:01;;;;;;;;;;;;;;;;;;2114139;27;1214;-74
2021/09/21 04:16:02;;;;;;;;;;;;;;;;;;2114206;27;1032;-73
2021/09/21 04:17:03;;;;;;;;;;;;;;;;;;2114699;27;1052;-73
2021/09/21 04:18:05;;;;;;;;;;;;;;;;;;2114211;27;1100;-74
2021/09/21 04:19:06;;;;;;;;;;;;;;;;;;2114259;27;2539;-73
2021/09/21 04:20:06;;;;;;;;;;;;;;;;;;2113504;27;4684;-74
2021/09/21 04:21:07;;;;;;;;;;;;;;;;;;2114851;27;1304;-73
2021/09/21 04:22:07;;;;;;;;;;;;;;;;;;2114819;27;1909;-74
2021/09/21 04:23:09;;;;;;;;;;;;;;;;;;2114079;27;1221;-73
2021/09/21 04:24:09;;;;;;;;;;;;;;;;;;2113980;27;1193;-73
2021/09/21 04:25:10;;;;;;;;;;;;;;;;;;2114989;27;1284;-73
2021/09/21 04:26:10;;;;;;;;;;;;;;;;;;2113820;27;1185;-73
2021/09/21 04:27:11;;;;;;;;;;;;;;;;;;2112341;27;4989;-74
2021/09/21 04:28:11;;;;;;;;;;;;;;;;;;2113596;27;4363;-74
2021/09/21 04:29:12;;;;;;;;;;;;;;;;;;2110511;27;5076;-74
2021/09/21 04:30:17;;;;;;;;;;;;;;;;;;2113053;27;4473;-74
2021/09/21 04:31:22;;;;;;;;;;;;;;;;;;2114889;27;4299;-73
2021/09/21 04:32:23;;;;;;;;;;;;;;;;;;2114005;27;1242;-74
2021/09/21 04:33:23;;;;;;;;;;;;;;;;;;2114141;27;4153;-73
2021/09/21 04:34:24;;;;;;;;;;;;;;;;;;2114393;27;4429;-73
2021/09/21 04:35:24;;;;;;;;;;;;;;;;;;2114870;27;1272;-73
2021/09/21 04:36:25;;;;;;;;;;;;;;;;;;2114708;27;1193;-73
2021/09/21 04:37:26;;;;;;;;;;;;;;;;;;2113566;27;4504;-74
2021/09/21 04:38:27;;;;;;;;;;;;;;;;;;2112563;27;4546;-73
2021/09/21 04:39:27;;;;;;;;;;;;;;;;;;2113889;27;4522;-73
2021/09/21 04:40:28;;;;;;;;;;;;;;;;;;2112971;27;4299;-74
2021/09/21 04:41:28;;;;;;;;;;;;;;;;;;2113170;27;1446;-74
2021/09/21 04:42:29;;;;;;;;;;;;;;;;;;2114340;27;1906;-73
2021/09/21 04:43:29;;;;;;;;;;;;;;;;;;2112731;27;4138;-73
2021/09/21 04:44:30;;;;;;;;;;;;;;;;;;2113893;27;1171;-73
2021/09/21 04:45:31;;;;;;;;;;;;;;;;;;2112616;27;1378;-74
2021/09/21 04:46:33;;;;;;;;;;;;;;;;;;2113387;27;4610;-74
2021/09/21 04:47:33;;;;;;;;;;;;;;;;;;2112611;27;3738;-74
2021/09/21 04:48:34;;;;;;;;;;;;;;;;;;2111920;27;4439;-73
2021/09/21 04:49:36;;;;;;;;;;;;;;;;;;2113959;27;1135;-74
2021/09/21 04:50:36;;;;;;;;;;;;;;;;;;2113065;27;4117;-73
2021/09/21 04:51:37;;;;;;;;;;;;;;;;;;2114850;27;1212;-73
2021/09/21 04:52:37;;;;;;;;;;;;;;;;;;2112895;27;4255;-73
2021/09/21 04:53:38;;;;;;;;;;;;;;;;;;2108639;27;3833;-73
2021/09/21 04:54:38;;;;;;;;;;;;;;;;;;2109110;27;4366;-73
2021/09/21 04:55:39;;;;;;;;;;;;;;;;;;2108095;27;3924;-74
2021/09/21 04:56:40;;;;;;;;;;;;;;;;;;2108358;27;4441;-73
2021/09/21 04:57:40;;;;;;;;;;;;;;;;;;2108549;27;1270;-73
2021/09/21 04:58:42;;;;;;;;;;;;;;;;;;2107936;27;2392;-73
2021/09/21 04:59:42;;;;;;;;;;;;;;;;;;2107629;27;4379;-73
2021/09/21 05:00:43;;;;;;;;;;;;;;;;;;2108245;27;2969;-74
2021/09/21 05:01:43;;;;;;;;;;;;;;;;;;2107146;27;1902;-74
2021/09/21 05:02:44;;;;;;;;;;;;;;;;;;2108277;27;4518;-74
2021/09/21 05:03:46;;;;;;;;;;;;;;;;;;2109942;27;4411;-74
2021/09/21 05:04:48;;;;;;;;;;;;;;;;;;2109114;27;2014;-73
2021/09/21 05:05:48;;;;;;;;;;;;;;;;;;2110016;27;3090;-74
2021/09/21 05:06:49;;;;;;;;;;;;;;;;;;2109153;27;2175;-74
2021/09/21 05:07:49;;;;;;;;;;;;;;;;;;2108096;27;4661;-74
2021/09/21 05:08:50;;;;;;;;;;;;;;;;;;2109577;27;2238;-73
2021/09/21 05:09:50;;;;;;;;;;;;;;;;;;2109118;27;1084;-73
2021/09/21 05:10:51;;;;;;;;;;;;;;;;;;2109865;27;1237;-73
2021/09/21 05:11:52;;;;;;;;;;;;;;;;;;2115046;27;1118;-73
2021/09/21 05:12:52;;;;;;;;;;;;;;;;;;2114182;27;1149;-73
2021/09/21 05:13:53;;;;;;;;;;;;;;;;;;2108305;27;1535;-73
2021/09/21 05:14:54;;;;;;;;;;;;;;;;;;2108200;27;2788;-73
2021/09/21 05:15:55;;;;;;;;;;;;;;;;;;2106831;27;5149;-73
2021/09/21 05:16:55;;;;;;;;;;;;;;;;;;2107635;27;4307;-74
2021/09/21 05:17:56;;;;;;;;;;;;;;;;;;2107149;27;4540;-74
2021/09/21 05:18:56;;;;;;;;;;;;;;;;;;2107338;27;4619;-73
2021/09/21 05:19:57;;;;;;;;;;;;;;;;;;2107149;27;4925;-73
2021/09/21 05:20:57;;;;;;;;;;;;;;;;;;2107239;27;4693;-74
2021/09/21 05:21:58;;;;;;;;;;;;;;;;;;2108715;27;2380;-74
2021/09/21 05:23:01;;;;;;;;;;;;;;;;;;2106823;27;5133;-73
2021/09/21 05:24:02;;;;;;;;;;;;;;;;;;2108540;27;1569;-74
2021/09/21 05:25:02;;;;;;;;;;;;;;;;;;2108341;27;4201;-73
2021/09/21 05:26:03;;;;;;;;;;;;;;;;;;2108385;27;1199;-73
2021/09/21 05:27:03;;;;;;;;;;;;;;;;;;2107189;27;4662;-74
2021/09/21 05:28:04;;;;;;;;;;;;;;;;;;2107766;27;4932;-74
2021/09/21 05:29:05;;;;;;;;;;;;;;;;;;2106863;27;5250;-73
2021/09/21 05:30:06;;;;;;;;;;;;;;;;;;2108739;27;1086;-74
2021/09/21 05:31:07;;;;;;;;;;;;;;;;;;2107296;27;4086;-73
2021/09/21 05:32:07;;;;;;;;;;;;;;;;;;2107408;27;1155;-74
2021/09/21 05:33:08;;;;;;;;;;;;;;;;;;2108065;27;1097;-73
2021/09/21 05:34:09;;;;;;;;;;;;;;;;;;2108181;27;1260;-73
2021/09/21 05:35:09;;;;;;;;;;;;;;;;;;2107663;27;4187;-73
2021/09/21 05:36:10;;;;;;;;;;;;;;;;;;2107461;27;4176;-73
2021/09/21 05:37:10;;;;;;;;;;;;;;;;;;2107788;27;4374;-73
2021/09/21 05:38:11;;;;;;;;;;;;;;;;;;2107919;27;4426;-74
2021/09/21 05:39:14;;;;;;;;;;;;;;;;;;2106795;27;4005;-74
2021/09/21 05:40:18;;;;;;;;;;;;;;;;;;2108520;27;1228;-74
2021/09/21 05:41:18;;;;;;;;;;;;;;;;;;2107481;27;4133;-74
2021/09/21 05:42:19;;;;;;;;;;;;;;;;;;2108011;27;4593;-73
2021/09/21 05:43:20;;;;;;;;;;;;;;;;;;2107578;27;1950;-73
2021/09/21 05:44:21;;;;;;;;;;;;;;;;;;2109147;27;1143;-73
2021/09/21 05:45:21;;;;;;;;;;;;;;;;;;2108170;27;1094;-73
2021/09/21 05:46:22;;;;;;;;;;;;;;;;;;2107167;27;4097;-73
2021/09/21 05:47:22;;;;;;;;;;;;;;;;;;2107959;27;3841;-74
2021/09/21 05:48:23;;;;;;;;;;;;;;;;;;2106536;27;4133;-74
2021/09/21 05:49:23;;;;;;;;;;;;;;;;;;2107515;27;4308;-73
2021/09/21 05:50:24;;;;;;;;;;;;;;;;;;2106709;27;2345;-73
2021/09/21 05:51:24;;;;;;;;;;;;;;;;;;2108101;27;1957;-73
2021/09/21 05:52:26;;;;;;;;;;;;;;;;;;2107018;27;4102;-74
2021/09/21 05:53:28;;;;;;;;;;;;;;;;;;2107602;27;4203;-74
2021/09/21 05:54:29;;;;;;;;;;;;;;;;;;2108067;27;1968;-73
2021/09/21 05:55:30;;;;;;;;;;;;;;;;;;2108869;27;1130;-74
2021/09/21 05:56:31;;;;;;;;;;;;;;;;;;2106457;27;4437;-74
2021/09/21 05:57:31;;;;;;;;;;;;;;;;;;2107370;27;1933;-73
2021/09/21 05:58:32;;;;;;;;;;;;;;;;;;2106378;27;3915;-73
2021/09/21 05:59:32;;;;;;;;;;;;;;;;;;2107404;27;1116;-73
2021/09/21 06:00:33;;;;;;;;;;;;;;;;;;2106658;27;4418;-73
2021/09/21 06:01:34;;;;;;;;;;;;;;;;;;2106957;27;3140;-73
2021/09/21 06:02:35;;;;;;;;;;;;;;;;;;2107787;27;2064;-73
2021/09/21 06:03:36;;;;;;;;;;;;;;;;;;2107586;27;3902;-73
2021/09/21 06:04:37;;;;;;;;;;;;;;;;;;2106955;27;4021;-74
2021/09/21 06:05:38;;;;;;;;;;;;;;;;;;2106664;27;4335;-74
2021/09/21 06:06:38;;;;;;;;;;;;;;;;;;2107862;27;4492;-73
2021/09/21 06:07:39;;;;;;;;;;;;;;;;;;2108098;27;1088;-73
2021/09/21 06:08:40;;;;;;;;;;;;;;;;;;2107283;27;3339;-74
2021/09/21 06:09:40;;;;;;;;;;;;;;;;;;2108043;27;1108;-73
2021/09/21 06:10:41;;;;;;;;;;;;;;;;;;2107569;27;4618;-73
2021/09/21 06:11:42;;;;;;;;;;;;;;;;;;2108239;27;1101;-73
2021/09/21 06:12:42;;;;;;;;;;;;;;;;;;2107418;27;1119;-73
2021/09/21 06:13:44;;;;;;;;;;;;;;;;;;2108050;27;4394;-74
2021/09/21 06:14:45;;;;;;;;;;;;;;;;;;2107496;27;1037;-73
2021/09/21 06:15:47;;;;;;;;;;;;;;;;;;2107713;27;1052;-73
2021/09/21 06:16:48;;;;;;;;;;;;;;;;;;2106803;27;4193;-73
2021/09/21 06:17:48;;;;;;;;;;;;;;;;;;2108647;27;1020;-73
2021/09/21 06:18:49;;;;;;;;;;;;;;;;;;2107036;27;4093;-73
2021/09/21 06:19:49;;;;;;;;;;;;;;;;;;2108096;27;1213;-73
2021/09/21 06:20:50;;;;;;;;;;;;;;;;;;2107696;27;1280;-73
2021/09/21 06:21:50;;;;;;;;;;;;;;;;;;2107922;27;1164;-73
2021/09/21 06:22:51;;;;;;;;;;;;;;;;;;2106667;27;4107;-73
2021/09/21 06:23:51;;;;;;;;;;;;;;;;;;2107594;27;4244;-73
2021/09/21 06:24:52;;;;;;;;;;;;;;;;;;2108794;27;1100;-73
2021/09/21 06:25:53;;;;;;;;;;;;;;;;;;2107174;27;1555;-74
2021/09/21 06:26:54;;;;;;;;;;;;;;;;;;2106266;27;4482;-74
2021/09/21 06:27:54;;;;;;;;;;;;;;;;;;2107647;27;4160;-73
2021/09/21 06:28:55;;;;;;;;;;;;;;;;;;2106206;27;4699;-73
2021/09/21 06:29:55;;;;;;;;;;;;;;;;;;2107460;27;1122;-73
2021/09/21 06:30:56;;;;;;;;;;;;;;;;;;2108207;27;1359;-73
2021/09/21 06:31:57;;;;;;;;;;;;;;;;;;2106967;27;4190;-73
2021/09/21 06:32:57;;;;;;;;;;;;;;;;;;2107529;27;1041;-74
2021/09/21 06:33:58;;;;;;;;;;;;;;;;;;2107605;27;4246;-73
2021/09/21 06:34:58;;;;;;;;;;;;;;;;;;2108142;27;4618;-73
2021/09/21 06:35:59;;;;;;;;;;;;;;;;;;2107781;27;1073;-73
2021/09/21 06:37:01;;;;;;;;;;;;;;;;;;2109060;27;4752;-73
2021/09/21 06:38:01;;;;;;;;;;;;;;;;;;2107595;27;1130;-74
2021/09/21 06:39:03;;;;;;;;;;;;;;;;;;2106282;27;2256;-73
2021/09/21 06:40:03;;;;;;;;;;;;;;;;;;2107403;27;1320;-74
2021/09/21 06:41:04;;;;;;;;;;;;;;;;;;2107590;27;1304;-73
2021/09/21 06:42:04;;;;;;;;;;;;;;;;;;2105964;27;4375;-73
2021/09/21 06:43:05;;;;;;;;;;;;;;;;;;2107005;27;4325;-73
2021/09/21 06:44:05;;;;;;;;;;;;;;;;;;2106303;27;4398;-73
2021/09/21 06:45:06;;;;;;;;;;;;;;;;;;2104998;27;4612;-74
2021/09/21 06:46:07;;;;;;;;;;;;;;;;;;2106816;27;5697;-73
2021/09/21 06:47:08;;;;;;;;;;;;;;;;;;2107229;27;5268;-73
2021/09/21 06:48:09;;;;;;;;;;;;;;;;;;2106633;27;2288;-74
2021/09/21 06:49:09;;;;;;;;;;;;;;;;;;2106207;27;5825;-73
2021/09/21 06:50:10;;;;;;;;;;;;;;;;;;2106327;27;4616;-73
2021/09/21 06:51:11;;;;;;;;;;;;;;;;;;2107115;27;4518;-74
2021/09/21 06:52:11;;;;;;;;;;;;;;;;;;2107934;27;1293;-73
2021/09/21 06:53:12;;;;;;;;;;;;;;;;;;2106777;27;2574;-73
2021/09/21 06:54:13;;;;;;;;;;;;;;;;;;2107386;27;4649;-73
2021/09/21 06:55:14;;;;;;;;;;;;;;;;;;2107564;27;4248;-74
2021/09/21 06:56:14;;;;;;;;;;;;;;;;;;2107143;27;4103;-74
2021/09/21 06:57:15;;;;;;;;;;;;;;;;;;2107493;27;1247;-74
2021/09/21 06:58:15;;;;;;;;;;;;;;;;;;2107055;27;3280;-73
2021/09/21 06:59:16;;;;;;;;;;;;;;;;;;2108197;27;4589;-73
2021/09/21 07:00:16;;;;;;;;;;;;;;;;;;2109056;27;1124;-73
2021/09/21 07:01:18;;;;;;;;;;;;;;;;;;2108703;27;1388;-74
2021/09/21 07:02:18;;;;;;;;;;;;;;;;;;2108913;27;2073;-74
2021/09/21 07:03:19;;;;;;;;;;;;;;;;;;2106465;27;4995;-73
2021/09/21 07:04:19;;;;;;;;;;;;;;;;;;2108376;27;4627;-74
2021/09/21 07:05:20;;;;;;;;;;;;;;;;;;2108077;27;1385;-74
2021/09/21 07:06:20;;;;;;;;;;;;;;;;;;2107875;27;1379;-74
2021/09/21 07:07:21;;;;;;;;;;;;;;;;;;2106214;27;2484;-73
2021/09/21 07:08:22;;;;;;;;;;;;;;;;;;2106474;27;4009;-73
2021/09/21 07:09:23;;;;;;;;;;;;;;;;;;2107834;27;4601;-73
2021/09/21 07:10:24;;;;;;;;;;;;;;;;;;2109112;27;4525;-73
2021/09/21 07:11:27;;;;;;;;;;;;;;;;;;2110103;27;4532;-73
2021/09/21 07:12:27;;;;;;;;;;;;;;;;;;2107928;27;5473;-73
2021/09/21 07:13:28;;;;;;;;;;;;;;;;;;2109441;27;5000;-73